sensor_id;sensor_type;location;lat;lon;timestamp;P1;durP1;ratioP1;P2;durP2;ratioP2
32319;SDS011;19080;51.750;5.888;2023-04-29T00:01:05;72.80;;;45.78;;
32319;SDS011;19080;51.750;5.888;2023-04-29T00:03:32;74.88;;;46.90;;
32319;SDS011;19080;51.750;5.888;2023-04-29T00:05:59;73.82;;;45.58;;
32319;SDS011;19080;51.750;5.888;2023-04-29T00:08:26;70.63;;;45.25;;
32319;SDS011;19080;51.750;5.888;2023-04-29T00:10:53;73.70;;;46.03;;
32319;SDS011;19080;51.750;5.888;2023-04-29T00:13:21;68.85;;;44.08;;
32319;SDS011;19080;51.750;5.888;2023-04-29T00:15:48;63.97;;;41.10;;
32319;SDS011;19080;51.750;5.888;2023-04-29T00:18:15;66.32;;;42.58;;
32319;SDS011;19080;51.750;5.888;2023-04-29T00:20:42;70.43;;;43.15;;
32319;SDS011;19080;51.750;5.888;2023-04-29T00:23:10;68.32;;;45.35;;
32319;SDS011;19080;51.750;5.888;2023-04-29T00:25:37;62.22;;;39.60;;
32319;SDS011;19080;51.750;5.888;2023-04-29T00:28:07;52.35;;;34.55;;
32319;SDS011;19080;51.750;5.888;2023-04-29T00:30:33;54.47;;;36.67;;
32319;SDS011;19080;51.750;5.888;2023-04-29T00:33:01;51.53;;;35.80;;
32319;SDS011;19080;51.750;5.888;2023-04-29T00:35:29;49.00;;;32.78;;
32319;SDS011;19080;51.750;5.888;2023-04-29T00:37:56;51.70;;;33.13;;
32319;SDS011;19080;51.750;5.888;2023-04-29T00:40:22;47.65;;;33.33;;
32319;SDS011;19080;51.750;5.888;2023-04-29T00:42:49;44.22;;;30.83;;
32319;SDS011;19080;51.750;5.888;2023-04-29T00:45:16;41.83;;;29.17;;
32319;SDS011;19080;51.750;5.888;2023-04-29T00:47:42;42.38;;;30.20;;
32319;SDS011;19080;51.750;5.888;2023-04-29T00:50:09;42.90;;;30.65;;
32319;SDS011;19080;51.750;5.888;2023-04-29T00:52:36;38.75;;;28.70;;
32319;SDS011;19080;51.750;5.888;2023-04-29T00:55:05;41.88;;;28.20;;
32319;SDS011;19080;51.750;5.888;2023-04-29T00:57:35;41.17;;;29.38;;
32319;SDS011;19080;51.750;5.888;2023-04-29T01:00:01;47.40;;;30.17;;
32319;SDS011;19080;51.750;5.888;2023-04-29T01:02:29;43.55;;;29.25;;
32319;SDS011;19080;51.750;5.888;2023-04-29T01:04:56;45.00;;;28.23;;
32319;SDS011;19080;51.750;5.888;2023-04-29T01:07:28;41.55;;;27.30;;
32319;SDS011;19080;51.750;5.888;2023-04-29T01:10:02;50.38;;;31.98;;
32319;SDS011;19080;51.750;5.888;2023-04-29T01:12:45;42.58;;;27.88;;
32319;SDS011;19080;51.750;5.888;2023-04-29T01:15:21;44.10;;;28.45;;
32319;SDS011;19080;51.750;5.888;2023-04-29T01:17:59;46.05;;;30.67;;
32319;SDS011;19080;51.750;5.888;2023-04-29T01:20:30;45.70;;;28.17;;
32319;SDS011;19080;51.750;5.888;2023-04-29T01:22:59;46.10;;;29.92;;
32319;SDS011;19080;51.750;5.888;2023-04-29T01:25:27;39.80;;;27.33;;
32319;SDS011;19080;51.750;5.888;2023-04-29T01:28:21;45.25;;;29.40;;
32319;SDS011;19080;51.750;5.888;2023-04-29T01:33:40;46.25;;;30.45;;
32319;SDS011;19080;51.750;5.888;2023-04-29T01:37:01;47.33;;;30.25;;
32319;SDS011;19080;51.750;5.888;2023-04-29T01:39:25;48.38;;;30.27;;
32319;SDS011;19080;51.750;5.888;2023-04-29T01:44:39;46.28;;;27.98;;
32319;SDS011;19080;51.750;5.888;2023-04-29T01:47:09;55.15;;;30.02;;
32319;SDS011;19080;51.750;5.888;2023-04-29T01:49:43;47.15;;;29.95;;
32319;SDS011;19080;51.750;5.888;2023-04-29T01:52:13;51.30;;;31.52;;
32319;SDS011;19080;51.750;5.888;2023-04-29T01:54:43;34.80;;;22.23;;
32319;SDS011;19080;51.750;5.888;2023-04-29T01:57:11;41.70;;;27.02;;
32319;SDS011;19080;51.750;5.888;2023-04-29T01:59:52;44.50;;;29.15;;
32319;SDS011;19080;51.750;5.888;2023-04-29T02:02:40;44.90;;;28.13;;
32319;SDS011;19080;51.750;5.888;2023-04-29T02:05:15;43.42;;;26.92;;
32319;SDS011;19080;51.750;5.888;2023-04-29T02:07:50;41.40;;;27.77;;
32319;SDS011;19080;51.750;5.888;2023-04-29T02:10:17;42.40;;;26.20;;
32319;SDS011;19080;51.750;5.888;2023-04-29T02:12:46;46.63;;;28.77;;
32319;SDS011;19080;51.750;5.888;2023-04-29T02:15:14;38.88;;;26.30;;
32319;SDS011;19080;51.750;5.888;2023-04-29T02:17:42;38.90;;;25.73;;
32319;SDS011;19080;51.750;5.888;2023-04-29T02:20:08;44.20;;;28.27;;
32319;SDS011;19080;51.750;5.888;2023-04-29T02:22:36;41.58;;;27.40;;
32319;SDS011;19080;51.750;5.888;2023-04-29T02:25:02;39.83;;;26.52;;
32319;SDS011;19080;51.750;5.888;2023-04-29T02:27:30;41.40;;;26.25;;
32319;SDS011;19080;51.750;5.888;2023-04-29T02:29:57;44.20;;;27.30;;
32319;SDS011;19080;51.750;5.888;2023-04-29T02:32:24;46.20;;;26.45;;
32319;SDS011;19080;51.750;5.888;2023-04-29T02:34:52;42.55;;;25.80;;
32319;SDS011;19080;51.750;5.888;2023-04-29T02:37:20;39.58;;;24.80;;
32319;SDS011;19080;51.750;5.888;2023-04-29T02:39:46;44.97;;;26.60;;
32319;SDS011;19080;51.750;5.888;2023-04-29T02:42:13;40.35;;;25.27;;
32319;SDS011;19080;51.750;5.888;2023-04-29T02:44:40;45.40;;;25.45;;
32319;SDS011;19080;51.750;5.888;2023-04-29T02:47:07;36.95;;;23.95;;
32319;SDS011;19080;51.750;5.888;2023-04-29T02:49:34;41.15;;;26.45;;
32319;SDS011;19080;51.750;5.888;2023-04-29T02:52:01;36.60;;;24.63;;
32319;SDS011;19080;51.750;5.888;2023-04-29T02:54:28;35.30;;;23.60;;
32319;SDS011;19080;51.750;5.888;2023-04-29T02:56:55;41.92;;;24.83;;
32319;SDS011;19080;51.750;5.888;2023-04-29T02:59:21;41.50;;;25.15;;
32319;SDS011;19080;51.750;5.888;2023-04-29T03:01:48;37.08;;;24.75;;
32319;SDS011;19080;51.750;5.888;2023-04-29T03:04:15;35.08;;;24.08;;
32319;SDS011;19080;51.750;5.888;2023-04-29T03:06:42;39.35;;;23.77;;
32319;SDS011;19080;51.750;5.888;2023-04-29T03:09:10;38.50;;;24.48;;
32319;SDS011;19080;51.750;5.888;2023-04-29T03:11:38;39.13;;;23.92;;
32319;SDS011;19080;51.750;5.888;2023-04-29T03:14:05;41.75;;;25.88;;
32319;SDS011;19080;51.750;5.888;2023-04-29T03:16:32;38.28;;;25.20;;
32319;SDS011;19080;51.750;5.888;2023-04-29T03:19:00;42.50;;;26.98;;
32319;SDS011;19080;51.750;5.888;2023-04-29T03:21:26;36.35;;;21.98;;
32319;SDS011;19080;51.750;5.888;2023-04-29T03:23:55;37.20;;;24.98;;
32319;SDS011;19080;51.750;5.888;2023-04-29T03:26:28;40.65;;;25.45;;
32319;SDS011;19080;51.750;5.888;2023-04-29T03:28:55;36.72;;;24.52;;
32319;SDS011;19080;51.750;5.888;2023-04-29T03:31:25;35.50;;;23.75;;
32319;SDS011;19080;51.750;5.888;2023-04-29T03:33:52;36.00;;;23.50;;
32319;SDS011;19080;51.750;5.888;2023-04-29T03:36:20;40.63;;;24.75;;
32319;SDS011;19080;51.750;5.888;2023-04-29T03:38:56;36.45;;;24.45;;
32319;SDS011;19080;51.750;5.888;2023-04-29T03:41:23;36.10;;;24.33;;
32319;SDS011;19080;51.750;5.888;2023-04-29T03:43:51;32.55;;;22.55;;
32319;SDS011;19080;51.750;5.888;2023-04-29T03:46:18;34.08;;;22.63;;
32319;SDS011;19080;51.750;5.888;2023-04-29T03:48:44;34.13;;;23.23;;
32319;SDS011;19080;51.750;5.888;2023-04-29T03:51:12;30.77;;;20.83;;
32319;SDS011;19080;51.750;5.888;2023-04-29T03:53:38;38.08;;;24.75;;
32319;SDS011;19080;51.750;5.888;2023-04-29T03:56:07;36.65;;;22.23;;
32319;SDS011;19080;51.750;5.888;2023-04-29T03:58:36;34.13;;;23.15;;
32319;SDS011;19080;51.750;5.888;2023-04-29T04:01:03;33.97;;;21.33;;
32319;SDS011;19080;51.750;5.888;2023-04-29T04:03:37;31.48;;;21.60;;
32319;SDS011;19080;51.750;5.888;2023-04-29T04:06:04;36.50;;;23.85;;
32319;SDS011;19080;51.750;5.888;2023-04-29T04:08:31;42.40;;;25.00;;
32319;SDS011;19080;51.750;5.888;2023-04-29T04:11:11;38.05;;;24.42;;
32319;SDS011;19080;51.750;5.888;2023-04-29T04:13:43;40.00;;;24.05;;
32319;SDS011;19080;51.750;5.888;2023-04-29T04:16:11;34.22;;;22.05;;
32319;SDS011;19080;51.750;5.888;2023-04-29T04:18:38;37.95;;;24.23;;
32319;SDS011;19080;51.750;5.888;2023-04-29T04:21:09;33.53;;;23.75;;
32319;SDS011;19080;51.750;5.888;2023-04-29T04:23:39;30.45;;;22.60;;
32319;SDS011;19080;51.750;5.888;2023-04-29T04:26:08;39.58;;;24.55;;
32319;SDS011;19080;51.750;5.888;2023-04-29T04:28:54;34.65;;;23.02;;
32319;SDS011;19080;51.750;5.888;2023-04-29T04:31:47;44.83;;;25.00;;
32319;SDS011;19080;51.750;5.888;2023-04-29T04:34:15;38.92;;;25.10;;
32319;SDS011;19080;51.750;5.888;2023-04-29T04:36:45;37.45;;;23.98;;
32319;SDS011;19080;51.750;5.888;2023-04-29T04:39:12;34.95;;;25.10;;
32319;SDS011;19080;51.750;5.888;2023-04-29T04:41:39;34.85;;;23.02;;
32319;SDS011;19080;51.750;5.888;2023-04-29T04:44:06;39.15;;;25.58;;
32319;SDS011;19080;51.750;5.888;2023-04-29T04:46:40;35.63;;;23.50;;
32319;SDS011;19080;51.750;5.888;2023-04-29T04:49:13;43.72;;;26.67;;
32319;SDS011;19080;51.750;5.888;2023-04-29T04:51:47;31.40;;;23.25;;
32319;SDS011;19080;51.750;5.888;2023-04-29T04:54:14;39.67;;;26.10;;
32319;SDS011;19080;51.750;5.888;2023-04-29T04:56:41;38.50;;;25.80;;
32319;SDS011;19080;51.750;5.888;2023-04-29T04:59:08;33.50;;;23.42;;
32319;SDS011;19080;51.750;5.888;2023-04-29T05:01:37;34.40;;;24.30;;
32319;SDS011;19080;51.750;5.888;2023-04-29T05:04:03;37.85;;;25.58;;
32319;SDS011;19080;51.750;5.888;2023-04-29T05:06:30;33.67;;;24.63;;
32319;SDS011;19080;51.750;5.888;2023-04-29T05:08:59;32.65;;;23.23;;
32319;SDS011;19080;51.750;5.888;2023-04-29T05:11:25;35.53;;;23.92;;
32319;SDS011;19080;51.750;5.888;2023-04-29T05:14:06;33.40;;;23.35;;
32319;SDS011;19080;51.750;5.888;2023-04-29T05:16:34;31.25;;;22.77;;
32319;SDS011;19080;51.750;5.888;2023-04-29T05:19:01;35.08;;;25.58;;
32319;SDS011;19080;51.750;5.888;2023-04-29T05:21:31;29.55;;;21.83;;
32319;SDS011;19080;51.750;5.888;2023-04-29T05:23:59;32.10;;;22.52;;
32319;SDS011;19080;51.750;5.888;2023-04-29T05:26:25;27.45;;;19.83;;
32319;SDS011;19080;51.750;5.888;2023-04-29T05:28:57;29.73;;;21.23;;
32319;SDS011;19080;51.750;5.888;2023-04-29T05:31:23;31.15;;;20.77;;
32319;SDS011;19080;51.750;5.888;2023-04-29T05:33:51;31.20;;;24.15;;
32319;SDS011;19080;51.750;5.888;2023-04-29T05:36:18;26.73;;;21.08;;
32319;SDS011;19080;51.750;5.888;2023-04-29T05:38:45;31.75;;;22.83;;
32319;SDS011;19080;51.750;5.888;2023-04-29T05:41:12;35.20;;;22.27;;
32319;SDS011;19080;51.750;5.888;2023-04-29T05:44:09;28.00;;;20.45;;
32319;SDS011;19080;51.750;5.888;2023-04-29T05:46:36;27.05;;;18.23;;
32319;SDS011;19080;51.750;5.888;2023-04-29T05:49:03;28.05;;;18.42;;
32319;SDS011;19080;51.750;5.888;2023-04-29T05:51:30;24.02;;;17.40;;
32319;SDS011;19080;51.750;5.888;2023-04-29T05:53:57;22.00;;;17.08;;
32319;SDS011;19080;51.750;5.888;2023-04-29T05:56:27;24.23;;;18.73;;
32319;SDS011;19080;51.750;5.888;2023-04-29T05:58:54;24.10;;;18.00;;
32319;SDS011;19080;51.750;5.888;2023-04-29T06:01:21;24.40;;;18.50;;
32319;SDS011;19080;51.750;5.888;2023-04-29T06:03:48;23.30;;;18.38;;
32319;SDS011;19080;51.750;5.888;2023-04-29T06:06:37;22.33;;;18.05;;
32319;SDS011;19080;51.750;5.888;2023-04-29T06:09:20;28.55;;;19.92;;
32319;SDS011;19080;51.750;5.888;2023-04-29T06:11:55;24.38;;;16.77;;
32319;SDS011;19080;51.750;5.888;2023-04-29T06:14:22;23.00;;;17.73;;
32319;SDS011;19080;51.750;5.888;2023-04-29T06:16:49;23.85;;;18.25;;
32319;SDS011;19080;51.750;5.888;2023-04-29T06:19:15;21.92;;;16.90;;
32319;SDS011;19080;51.750;5.888;2023-04-29T06:21:42;18.63;;;15.07;;
32319;SDS011;19080;51.750;5.888;2023-04-29T06:24:09;21.45;;;15.73;;
32319;SDS011;19080;51.750;5.888;2023-04-29T06:26:35;22.70;;;15.77;;
32319;SDS011;19080;51.750;5.888;2023-04-29T06:29:02;23.02;;;14.60;;
32319;SDS011;19080;51.750;5.888;2023-04-29T06:31:29;19.92;;;15.10;;
32319;SDS011;19080;51.750;5.888;2023-04-29T06:34:00;19.80;;;15.65;;
32319;SDS011;19080;51.750;5.888;2023-04-29T06:36:27;18.90;;;15.60;;
32319;SDS011;19080;51.750;5.888;2023-04-29T06:39:06;18.92;;;14.95;;
32319;SDS011;19080;51.750;5.888;2023-04-29T06:41:46;18.67;;;14.60;;
32319;SDS011;19080;51.750;5.888;2023-04-29T06:44:51;22.08;;;15.50;;
32319;SDS011;19080;51.750;5.888;2023-04-29T06:47:35;19.80;;;14.82;;
32319;SDS011;19080;51.750;5.888;2023-04-29T06:50:10;21.60;;;16.20;;
32319;SDS011;19080;51.750;5.888;2023-04-29T06:52:36;19.73;;;15.68;;
32319;SDS011;19080;51.750;5.888;2023-04-29T06:55:03;21.33;;;16.08;;
32319;SDS011;19080;51.750;5.888;2023-04-29T06:57:30;19.38;;;16.00;;
32319;SDS011;19080;51.750;5.888;2023-04-29T06:59:57;20.77;;;16.10;;
32319;SDS011;19080;51.750;5.888;2023-04-29T07:02:24;21.85;;;15.60;;
32319;SDS011;19080;51.750;5.888;2023-04-29T07:04:50;19.30;;;16.10;;
32319;SDS011;19080;51.750;5.888;2023-04-29T07:07:18;20.90;;;15.88;;
32319;SDS011;19080;51.750;5.888;2023-04-29T07:09:44;21.67;;;15.05;;
32319;SDS011;19080;51.750;5.888;2023-04-29T07:12:11;20.35;;;15.32;;
32319;SDS011;19080;51.750;5.888;2023-04-29T07:14:37;19.35;;;15.95;;
32319;SDS011;19080;51.750;5.888;2023-04-29T07:17:04;18.33;;;14.43;;
32319;SDS011;19080;51.750;5.888;2023-04-29T07:19:31;21.65;;;15.43;;
32319;SDS011;19080;51.750;5.888;2023-04-29T07:21:57;21.05;;;16.60;;
32319;SDS011;19080;51.750;5.888;2023-04-29T07:24:24;23.17;;;16.17;;
32319;SDS011;19080;51.750;5.888;2023-04-29T07:26:51;21.65;;;15.63;;
32319;SDS011;19080;51.750;5.888;2023-04-29T07:29:18;16.63;;;14.70;;
32319;SDS011;19080;51.750;5.888;2023-04-29T07:31:45;22.38;;;15.02;;
32319;SDS011;19080;51.750;5.888;2023-04-29T07:34:11;20.27;;;15.38;;
32319;SDS011;19080;51.750;5.888;2023-04-29T07:36:38;19.17;;;15.30;;
32319;SDS011;19080;51.750;5.888;2023-04-29T07:39:05;18.65;;;14.43;;
32319;SDS011;19080;51.750;5.888;2023-04-29T07:41:32;19.17;;;15.18;;
32319;SDS011;19080;51.750;5.888;2023-04-29T07:43:59;20.55;;;15.73;;
32319;SDS011;19080;51.750;5.888;2023-04-29T07:46:25;23.50;;;16.50;;
32319;SDS011;19080;51.750;5.888;2023-04-29T07:48:52;21.40;;;15.38;;
32319;SDS011;19080;51.750;5.888;2023-04-29T07:51:19;22.65;;;15.38;;
32319;SDS011;19080;51.750;5.888;2023-04-29T07:53:46;20.05;;;14.77;;
32319;SDS011;19080;51.750;5.888;2023-04-29T07:56:13;21.55;;;15.10;;
32319;SDS011;19080;51.750;5.888;2023-04-29T07:58:40;21.40;;;14.23;;
32319;SDS011;19080;51.750;5.888;2023-04-29T08:01:07;17.58;;;14.32;;
32319;SDS011;19080;51.750;5.888;2023-04-29T08:03:35;16.60;;;14.35;;
32319;SDS011;19080;51.750;5.888;2023-04-29T08:06:06;19.67;;;15.77;;
32319;SDS011;19080;51.750;5.888;2023-04-29T08:08:33;21.25;;;15.10;;
32319;SDS011;19080;51.750;5.888;2023-04-29T08:11:00;19.80;;;13.68;;
32319;SDS011;19080;51.750;5.888;2023-04-29T08:13:27;16.38;;;13.27;;
32319;SDS011;19080;51.750;5.888;2023-04-29T08:15:54;15.77;;;13.13;;
32319;SDS011;19080;51.750;5.888;2023-04-29T08:18:20;20.20;;;14.07;;
32319;SDS011;19080;51.750;5.888;2023-04-29T08:20:47;19.50;;;14.52;;
32319;SDS011;19080;51.750;5.888;2023-04-29T08:23:14;16.33;;;13.32;;
32319;SDS011;19080;51.750;5.888;2023-04-29T08:25:41;17.80;;;12.80;;
32319;SDS011;19080;51.750;5.888;2023-04-29T08:28:09;20.60;;;12.93;;
32319;SDS011;19080;51.750;5.888;2023-04-29T08:30:37;17.77;;;13.30;;
32319;SDS011;19080;51.750;5.888;2023-04-29T08:33:04;17.38;;;12.32;;
32319;SDS011;19080;51.750;5.888;2023-04-29T08:35:31;15.82;;;11.77;;
32319;SDS011;19080;51.750;5.888;2023-04-29T08:37:58;17.05;;;12.02;;
32319;SDS011;19080;51.750;5.888;2023-04-29T08:40:25;16.13;;;12.57;;
32319;SDS011;19080;51.750;5.888;2023-04-29T08:42:52;17.83;;;12.88;;
32319;SDS011;19080;51.750;5.888;2023-04-29T08:45:19;19.33;;;12.68;;
32319;SDS011;19080;51.750;5.888;2023-04-29T08:47:50;19.35;;;12.32;;
32319;SDS011;19080;51.750;5.888;2023-04-29T08:50:18;22.50;;;12.55;;
32319;SDS011;19080;51.750;5.888;2023-04-29T08:52:44;15.55;;;12.13;;
32319;SDS011;19080;51.750;5.888;2023-04-29T08:55:11;20.65;;;12.07;;
32319;SDS011;19080;51.750;5.888;2023-04-29T08:57:37;17.45;;;12.23;;
32319;SDS011;19080;51.750;5.888;2023-04-29T09:00:06;15.32;;;10.98;;
32319;SDS011;19080;51.750;5.888;2023-04-29T09:02:53;17.83;;;12.13;;
32319;SDS011;19080;51.750;5.888;2023-04-29T09:05:22;19.27;;;11.75;;
32319;SDS011;19080;51.750;5.888;2023-04-29T09:07:50;17.00;;;11.65;;
32319;SDS011;19080;51.750;5.888;2023-04-29T09:10:17;13.27;;;10.65;;
32319;SDS011;19080;51.750;5.888;2023-04-29T09:12:44;22.60;;;11.98;;
32319;SDS011;19080;51.750;5.888;2023-04-29T09:15:12;17.40;;;12.00;;
32319;SDS011;19080;51.750;5.888;2023-04-29T09:20:24;13.20;;;10.65;;
32319;SDS011;19080;51.750;5.888;2023-04-29T09:23:10;17.02;;;11.05;;
32319;SDS011;19080;51.750;5.888;2023-04-29T09:25:37;15.63;;;10.35;;
32319;SDS011;19080;51.750;5.888;2023-04-29T09:28:15;14.77;;;10.80;;
32319;SDS011;19080;51.750;5.888;2023-04-29T09:30:45;18.27;;;10.52;;
32319;SDS011;19080;51.750;5.888;2023-04-29T09:33:12;13.05;;;10.70;;
32319;SDS011;19080;51.750;5.888;2023-04-29T09:35:40;16.08;;;10.45;;
32319;SDS011;19080;51.750;5.888;2023-04-29T09:38:08;13.55;;;9.65;;
32319;SDS011;19080;51.750;5.888;2023-04-29T09:40:39;14.13;;;10.15;;
32319;SDS011;19080;51.750;5.888;2023-04-29T09:43:24;18.05;;;10.60;;
32319;SDS011;19080;51.750;5.888;2023-04-29T09:45:51;13.82;;;10.07;;
32319;SDS011;19080;51.750;5.888;2023-04-29T09:48:18;13.32;;;9.65;;
32319;SDS011;19080;51.750;5.888;2023-04-29T09:50:44;15.18;;;9.15;;
32319;SDS011;19080;51.750;5.888;2023-04-29T09:53:28;11.77;;;8.88;;
32319;SDS011;19080;51.750;5.888;2023-04-29T09:56:00;13.55;;;9.18;;
32319;SDS011;19080;51.750;5.888;2023-04-29T09:58:29;11.73;;;8.85;;
32319;SDS011;19080;51.750;5.888;2023-04-29T10:01:05;12.40;;;8.75;;
32319;SDS011;19080;51.750;5.888;2023-04-29T10:03:33;10.98;;;8.52;;
32319;SDS011;19080;51.750;5.888;2023-04-29T10:06:02;12.55;;;9.05;;
32319;SDS011;19080;51.750;5.888;2023-04-29T10:08:31;10.07;;;8.32;;
32319;SDS011;19080;51.750;5.888;2023-04-29T10:10:59;12.07;;;8.48;;
32319;SDS011;19080;51.750;5.888;2023-04-29T10:13:28;11.63;;;8.30;;
32319;SDS011;19080;51.750;5.888;2023-04-29T10:18:33;9.30;;;8.23;;
32319;SDS011;19080;51.750;5.888;2023-04-29T10:21:03;10.30;;;8.10;;
32319;SDS011;19080;51.750;5.888;2023-04-29T10:23:33;8.50;;;7.25;;
32319;SDS011;19080;51.750;5.888;2023-04-29T10:25:59;10.95;;;8.02;;
32319;SDS011;19080;51.750;5.888;2023-04-29T10:28:32;11.50;;;8.45;;
32319;SDS011;19080;51.750;5.888;2023-04-29T10:31:00;9.45;;;7.70;;
32319;SDS011;19080;51.750;5.888;2023-04-29T10:33:29;8.77;;;7.45;;
32319;SDS011;19080;51.750;5.888;2023-04-29T10:35:59;10.45;;;6.75;;
32319;SDS011;19080;51.750;5.888;2023-04-29T10:38:49;8.60;;;7.00;;
32319;SDS011;19080;51.750;5.888;2023-04-29T10:41:26;10.50;;;8.18;;
32319;SDS011;19080;51.750;5.888;2023-04-29T10:43:55;9.85;;;7.25;;
32319;SDS011;19080;51.750;5.888;2023-04-29T10:46:25;8.18;;;7.10;;
32319;SDS011;19080;51.750;5.888;2023-04-29T10:49:10;11.43;;;6.63;;
32319;SDS011;19080;51.750;5.888;2023-04-29T10:51:41;8.98;;;6.78;;
32319;SDS011;19080;51.750;5.888;2023-04-29T10:56:42;6.72;;;5.75;;
32319;SDS011;19080;51.750;5.888;2023-04-29T10:59:20;10.30;;;6.60;;
32319;SDS011;19080;51.750;5.888;2023-04-29T11:01:51;9.45;;;6.53;;
32319;SDS011;19080;51.750;5.888;2023-04-29T11:04:21;9.55;;;6.47;;
32319;SDS011;19080;51.750;5.888;2023-04-29T11:06:52;8.43;;;5.95;;
32319;SDS011;19080;51.750;5.888;2023-04-29T11:09:24;8.98;;;5.97;;
32319;SDS011;19080;51.750;5.888;2023-04-29T11:12:07;6.60;;;5.90;;
32319;SDS011;19080;51.750;5.888;2023-04-29T11:14:36;7.47;;;5.60;;
32319;SDS011;19080;51.750;5.888;2023-04-29T11:17:10;9.05;;;6.25;;
32319;SDS011;19080;51.750;5.888;2023-04-29T11:19:40;10.95;;;6.20;;
32319;SDS011;19080;51.750;5.888;2023-04-29T11:27:21;7.45;;;6.10;;
32319;SDS011;19080;51.750;5.888;2023-04-29T11:29:52;10.13;;;6.35;;
32319;SDS011;19080;51.750;5.888;2023-04-29T11:32:25;9.15;;;5.85;;
32319;SDS011;19080;51.750;5.888;2023-04-29T11:35:09;9.25;;;6.20;;
32319;SDS011;19080;51.750;5.888;2023-04-29T11:37:38;7.80;;;5.90;;
32319;SDS011;19080;51.750;5.888;2023-04-29T11:40:05;7.13;;;5.93;;
32319;SDS011;19080;51.750;5.888;2023-04-29T11:42:54;8.57;;;5.38;;
32319;SDS011;19080;51.750;5.888;2023-04-29T11:45:19;7.82;;;5.70;;
32319;SDS011;19080;51.750;5.888;2023-04-29T11:47:46;6.00;;;4.97;;
32319;SDS011;19080;51.750;5.888;2023-04-29T11:50:14;7.75;;;4.68;;
32319;SDS011;19080;51.750;5.888;2023-04-29T11:52:48;8.43;;;5.13;;
32319;SDS011;19080;51.750;5.888;2023-04-29T11:55:14;8.48;;;5.28;;
32319;SDS011;19080;51.750;5.888;2023-04-29T11:57:41;6.65;;;4.57;;
32319;SDS011;19080;51.750;5.888;2023-04-29T12:00:09;7.10;;;4.85;;
32319;SDS011;19080;51.750;5.888;2023-04-29T12:02:38;6.43;;;4.55;;
32319;SDS011;19080;51.750;5.888;2023-04-29T12:05:09;7.90;;;4.65;;
32319;SDS011;19080;51.750;5.888;2023-04-29T12:07:38;6.78;;;4.53;;
32319;SDS011;19080;51.750;5.888;2023-04-29T12:10:08;7.20;;;4.47;;
32319;SDS011;19080;51.750;5.888;2023-04-29T12:12:37;5.40;;;4.27;;
32319;SDS011;19080;51.750;5.888;2023-04-29T12:15:06;7.72;;;4.00;;
32319;SDS011;19080;51.750;5.888;2023-04-29T12:17:35;5.95;;;4.25;;
32319;SDS011;19080;51.750;5.888;2023-04-29T12:20:02;10.23;;;4.30;;
32319;SDS011;19080;51.750;5.888;2023-04-29T12:22:32;7.43;;;4.00;;
32319;SDS011;19080;51.750;5.888;2023-04-29T12:24:59;6.22;;;3.97;;
32319;SDS011;19080;51.750;5.888;2023-04-29T12:27:28;5.00;;;3.60;;
32319;SDS011;19080;51.750;5.888;2023-04-29T12:29:55;4.90;;;4.35;;
32319;SDS011;19080;51.750;5.888;2023-04-29T12:32:23;6.30;;;3.88;;
32319;SDS011;19080;51.750;5.888;2023-04-29T12:34:51;4.68;;;3.85;;
32319;SDS011;19080;51.750;5.888;2023-04-29T12:37:19;4.88;;;3.88;;
32319;SDS011;19080;51.750;5.888;2023-04-29T12:39:48;5.95;;;3.60;;
32319;SDS011;19080;51.750;5.888;2023-04-29T12:42:16;7.78;;;3.67;;
32319;SDS011;19080;51.750;5.888;2023-04-29T12:44:46;5.07;;;4.00;;
32319;SDS011;19080;51.750;5.888;2023-04-29T12:47:14;5.28;;;3.83;;
32319;SDS011;19080;51.750;5.888;2023-04-29T12:49:43;5.85;;;3.72;;
32319;SDS011;19080;51.750;5.888;2023-04-29T12:52:11;5.18;;;4.30;;
32319;SDS011;19080;51.750;5.888;2023-04-29T12:54:38;5.97;;;4.25;;
32319;SDS011;19080;51.750;5.888;2023-04-29T12:57:09;8.68;;;3.72;;
32319;SDS011;19080;51.750;5.888;2023-04-29T12:59:37;4.43;;;3.67;;
32319;SDS011;19080;51.750;5.888;2023-04-29T13:02:05;6.40;;;3.22;;
32319;SDS011;19080;51.750;5.888;2023-04-29T13:04:31;5.07;;;4.18;;
32319;SDS011;19080;51.750;5.888;2023-04-29T13:06:58;5.53;;;3.70;;
32319;SDS011;19080;51.750;5.888;2023-04-29T13:09:26;4.75;;;3.28;;
32319;SDS011;19080;51.750;5.888;2023-04-29T13:11:52;4.47;;;3.35;;
32319;SDS011;19080;51.750;5.888;2023-04-29T13:14:19;8.13;;;3.22;;
32319;SDS011;19080;51.750;5.888;2023-04-29T13:16:46;3.47;;;3.00;;
32319;SDS011;19080;51.750;5.888;2023-04-29T13:19:13;4.43;;;3.53;;
32319;SDS011;19080;51.750;5.888;2023-04-29T13:21:59;5.07;;;3.13;;
32319;SDS011;19080;51.750;5.888;2023-04-29T13:24:26;4.93;;;2.95;;
32319;SDS011;19080;51.750;5.888;2023-04-29T13:26:53;3.50;;;2.55;;
32319;SDS011;19080;51.750;5.888;2023-04-29T13:29:20;4.43;;;2.58;;
32319;SDS011;19080;51.750;5.888;2023-04-29T13:31:46;6.38;;;2.88;;
32319;SDS011;19080;51.750;5.888;2023-04-29T13:34:13;3.65;;;2.90;;
32319;SDS011;19080;51.750;5.888;2023-04-29T13:36:40;3.80;;;2.88;;
32319;SDS011;19080;51.750;5.888;2023-04-29T13:39:06;3.58;;;2.92;;
32319;SDS011;19080;51.750;5.888;2023-04-29T13:41:33;5.28;;;3.33;;
32319;SDS011;19080;51.750;5.888;2023-04-29T13:44:01;5.03;;;3.30;;
32319;SDS011;19080;51.750;5.888;2023-04-29T13:46:28;4.00;;;2.60;;
32319;SDS011;19080;51.750;5.888;2023-04-29T13:48:57;3.22;;;2.58;;
32319;SDS011;19080;51.750;5.888;2023-04-29T13:51:44;4.68;;;2.40;;
32319;SDS011;19080;51.750;5.888;2023-04-29T13:54:31;9.32;;;3.15;;
32319;SDS011;19080;51.750;5.888;2023-04-29T13:57:01;6.30;;;3.65;;
32319;SDS011;19080;51.750;5.888;2023-04-29T13:59:49;5.95;;;3.05;;
32319;SDS011;19080;51.750;5.888;2023-04-29T14:02:18;6.20;;;2.90;;
32319;SDS011;19080;51.750;5.888;2023-04-29T14:04:48;5.93;;;3.65;;
32319;SDS011;19080;51.750;5.888;2023-04-29T14:07:15;4.43;;;3.13;;
32319;SDS011;19080;51.750;5.888;2023-04-29T14:09:42;8.73;;;3.53;;
32319;SDS011;19080;51.750;5.888;2023-04-29T14:12:08;4.28;;;2.85;;
32319;SDS011;19080;51.750;5.888;2023-04-29T14:14:35;4.00;;;2.05;;
32319;SDS011;19080;51.750;5.888;2023-04-29T14:17:02;6.25;;;2.92;;
32319;SDS011;19080;51.750;5.888;2023-04-29T14:19:28;4.75;;;2.92;;
32319;SDS011;19080;51.750;5.888;2023-04-29T14:21:55;3.92;;;2.70;;
32319;SDS011;19080;51.750;5.888;2023-04-29T14:24:22;3.63;;;2.40;;
32319;SDS011;19080;51.750;5.888;2023-04-29T14:26:48;3.90;;;2.70;;
32319;SDS011;19080;51.750;5.888;2023-04-29T14:29:15;5.63;;;3.08;;
32319;SDS011;19080;51.750;5.888;2023-04-29T14:31:41;3.88;;;3.20;;
32319;SDS011;19080;51.750;5.888;2023-04-29T14:34:08;2.92;;;2.63;;
32319;SDS011;19080;51.750;5.888;2023-04-29T14:36:34;4.07;;;3.17;;
32319;SDS011;19080;51.750;5.888;2023-04-29T14:39:01;5.60;;;3.55;;
32319;SDS011;19080;51.750;5.888;2023-04-29T14:41:29;3.92;;;3.35;;
32319;SDS011;19080;51.750;5.888;2023-04-29T14:43:56;6.13;;;3.97;;
32319;SDS011;19080;51.750;5.888;2023-04-29T14:46:22;3.63;;;3.00;;
32319;SDS011;19080;51.750;5.888;2023-04-29T14:48:50;4.10;;;2.58;;
32319;SDS011;19080;51.750;5.888;2023-04-29T14:51:17;4.05;;;2.80;;
32319;SDS011;19080;51.750;5.888;2023-04-29T14:53:43;4.75;;;3.20;;
32319;SDS011;19080;51.750;5.888;2023-04-29T14:56:10;6.22;;;2.67;;
32319;SDS011;19080;51.750;5.888;2023-04-29T14:58:36;4.38;;;2.75;;
32319;SDS011;19080;51.750;5.888;2023-04-29T15:01:03;6.72;;;3.33;;
32319;SDS011;19080;51.750;5.888;2023-04-29T15:03:30;3.20;;;2.70;;